createdAt,value
2022-12-03T00:02:20.165Z,102202.16
2022-12-03T00:04:46.791Z,102208.19
2022-12-03T00:07:13.442Z,102213.84
2022-12-03T00:09:39.983Z,102205.78
2022-12-03T00:12:06.773Z,102204.97
2022-12-03T00:14:33.599Z,102206.97
2022-12-03T00:17:00.089Z,102192.84
2022-12-03T00:19:26.733Z,102202.97
2022-12-03T00:21:53.290Z,102205.34
2022-12-03T00:24:19.850Z,102214.66
2022-12-03T00:26:46.372Z,102201.34
2022-12-03T00:29:13.073Z,102199.31
2022-12-03T00:31:39.738Z,102204.97
2022-12-03T00:34:06.318Z,102200.09
2022-12-03T00:36:32.867Z,102205.75
2022-12-03T00:38:59.834Z,102207.78
2022-12-03T00:41:26.372Z,102205.78
2022-12-03T00:43:57.495Z,102207.41
2022-12-03T00:46:25.204Z,102205.38
2022-12-03T00:48:51.931Z,102203.34
2022-12-03T00:51:18.615Z,102206.16
2022-12-03T00:53:45.084Z,102213.44
2022-12-03T00:56:11.627Z,102220.69
2022-12-03T00:58:38.177Z,102210.63
2022-12-03T01:01:04.835Z,102221.94
2022-12-03T01:03:31.390Z,102217.06
2022-12-03T01:05:57.957Z,102221.91
2022-12-03T01:08:24.402Z,102219.91
2022-12-03T01:10:50.908Z,102213.81
2022-12-03T01:13:17.412Z,102220.28
2022-12-03T01:15:44.065Z,102216.25
2022-12-03T01:18:10.747Z,102224.31
2022-12-03T01:20:38.526Z,102221.50
2022-12-03T01:23:05.615Z,102217.06
2022-12-03T01:25:32.202Z,102214.63
2022-12-03T01:27:58.799Z,102213.81
2022-12-03T01:30:25.336Z,102208.97
2022-12-03T01:32:52.079Z,102204.13
2022-12-03T01:35:18.634Z,102209.78
2022-12-03T01:37:45.165Z,102213.00
2022-12-03T01:40:15.492Z,102208.97
2022-12-03T01:46:56.785Z,102217.44
2022-12-03T01:49:27.386Z,102222.69
2022-12-03T01:51:55.512Z,102221.06
2022-12-03T01:54:36.520Z,102217.81
2022-12-03T01:57:03.209Z,102214.59
2022-12-03T01:59:38.513Z,102227.53
2022-12-03T02:02:28.222Z,102216.59
2022-12-03T02:04:56.012Z,102221.44
2022-12-03T02:07:24.383Z,102216.59
2022-12-03T02:09:52.009Z,102215.41
2022-12-03T02:12:22.897Z,102210.94
2022-12-03T02:14:50.061Z,102208.13
2022-12-03T02:17:17.494Z,102208.94
2022-12-03T02:19:44.285Z,102206.94
2022-12-03T02:22:23.186Z,102208.94
2022-12-03T02:25:03.612Z,102206.09
2022-12-03T02:27:30.265Z,102205.69
2022-12-03T02:29:56.883Z,102211.34
2022-12-03T02:32:23.670Z,102220.22
2022-12-03T02:34:51.878Z,102209.75
2022-12-03T02:37:26.037Z,102200.84
2022-12-03T02:39:54.952Z,102210.53
2022-12-03T02:42:37.191Z,102210.53
2022-12-03T02:45:11.175Z,102208.53
2022-12-03T02:47:42.986Z,102214.56
2022-12-03T02:50:12.420Z,102221.81
2022-12-03T02:52:40.158Z,102216.16
2022-12-03T02:55:07.821Z,102212.13
2022-12-03T02:57:36.710Z,102222.22
2022-12-03T03:00:06.342Z,102218.97
2022-12-03T03:02:33.572Z,102214.56
2022-12-03T03:05:01.275Z,102214.16
2022-12-03T03:07:28.106Z,102205.69
2022-12-03T03:09:54.845Z,102204.88
2022-12-03T03:12:21.422Z,102211.34
2022-12-03T03:14:48.028Z,102202.44
2022-12-03T03:17:14.682Z,102211.34
2022-12-03T03:19:42.092Z,102201.25
2022-12-03T03:22:10.760Z,102204.06
2022-12-03T03:24:37.790Z,102206.09
2022-12-03T03:27:05.287Z,102204.88
2022-12-03T03:29:33.990Z,102203.28
2022-12-03T03:32:02.257Z,102203.28
2022-12-03T03:34:30.229Z,102193.97
2022-12-03T03:36:56.830Z,102202.44
2022-12-03T03:39:23.419Z,102205.66
2022-12-03T03:41:49.976Z,102196.78
2022-12-03T03:44:16.570Z,102196.78
2022-12-03T03:46:43.379Z,102197.59
2022-12-03T03:49:10.653Z,102192.78
2022-12-03T03:51:38.505Z,102187.13
2022-12-03T03:54:06.120Z,102191.16
2022-12-03T03:56:33.661Z,102191.94
2022-12-03T03:59:00.484Z,102191.53
2022-12-03T04:01:27.786Z,102191.53
2022-12-03T04:03:54.858Z,102187.09
2022-12-03T04:06:21.486Z,102190.34
2022-12-03T04:08:48.021Z,102196.00
2022-12-03T04:11:33.192Z,102188.72
2022-12-03T04:13:59.788Z,102183.88
2022-12-03T04:16:26.406Z,102185.50
2022-12-03T04:18:53.028Z,102176.59
2022-12-03T04:21:41.265Z,102174.22
2022-12-03T04:24:09.402Z,102183.88
2022-12-03T04:26:54.562Z,102173.38
2022-12-03T04:29:21.644Z,102187.88
2022-12-03T04:32:06.806Z,102169.31
2022-12-03T04:34:52.468Z,102187.88
2022-12-03T04:37:19.360Z,102187.09
2022-12-03T04:39:45.896Z,102184.25
2022-12-03T04:42:12.452Z,102185.47
2022-12-03T04:44:39.262Z,102185.47
2022-12-03T04:47:18.171Z,102185.06
2022-12-03T04:49:49.946Z,102182.22
2022-12-03T04:52:18.545Z,102180.22
2022-12-03T04:54:45.998Z,102176.59
2022-12-03T04:57:12.808Z,102184.66
2022-12-03T04:59:39.584Z,102181.81
2022-12-03T05:02:07.221Z,102183.44
2022-12-03T05:04:34.294Z,102167.69
2022-12-03T05:07:00.876Z,102184.66
2022-12-03T05:09:27.635Z,102176.19
2022-12-03T05:11:54.195Z,102173.38
2022-12-03T05:14:20.745Z,102167.72
2022-12-03T05:16:47.344Z,102165.69
2022-12-03T05:19:13.900Z,102165.69
2022-12-03T05:21:40.479Z,102164.47
2022-12-03T05:24:07.220Z,102168.50
2022-12-03T05:26:33.882Z,102170.09
2022-12-03T05:29:01.181Z,102156.41
2022-12-03T05:31:27.768Z,102172.53
2022-12-03T05:33:55.149Z,102175.34
2022-12-03T05:36:21.831Z,102165.25
2022-12-03T05:38:48.653Z,102169.31
2022-12-03T05:41:33.706Z,102169.31
2022-12-03T05:44:00.224Z,102158.81
2022-12-03T05:46:26.926Z,102155.59
2022-12-03T05:48:54.822Z,102155.59
2022-12-03T05:51:21.374Z,102151.94
2022-12-03T05:53:48.113Z,102151.16
2022-12-03T05:56:14.653Z,102155.19
2022-12-03T05:58:41.148Z,102149.94
2022-12-03T06:01:07.731Z,102158.03
2022-12-03T06:03:34.403Z,102160.41
2022-12-03T06:06:01.036Z,102154.75
2022-12-03T06:08:27.551Z,102158.81
2022-12-03T06:10:54.131Z,102149.91
2022-12-03T06:13:20.633Z,102146.69
2022-12-03T06:15:47.270Z,102143.88
2022-12-03T06:18:13.998Z,102142.69
2022-12-03T06:20:40.543Z,102134.63
2022-12-03T06:23:07.053Z,102132.19
2022-12-03T06:25:33.633Z,102137.84
2022-12-03T06:28:00.127Z,102130.56
2022-12-03T06:30:26.681Z,102130.56
2022-12-03T06:32:53.222Z,102131.78
2022-12-03T06:35:19.750Z,102137.44
2022-12-03T06:37:48.933Z,102140.25
2022-12-03T06:40:16.756Z,102132.19
2022-12-03T06:42:43.290Z,102123.72
2022-12-03T06:45:10.133Z,102127.34
2022-12-03T06:47:37.180Z,102129.75
2022-12-03T06:50:05.330Z,102134.56
2022-12-03T06:52:31.806Z,102128.94
2022-12-03T06:54:58.377Z,102132.97
2022-12-03T06:57:24.870Z,102130.56
2022-12-03T06:59:51.538Z,102136.19
2022-12-03T07:02:18.459Z,102133.78
2022-12-03T07:04:52.770Z,102128.13
2022-12-03T07:07:19.885Z,102135.78
2022-12-03T07:09:46.420Z,102131.34
2022-12-03T07:12:12.977Z,102133.75
2022-12-03T07:14:39.904Z,102124.88
2022-12-03T07:17:06.445Z,102128.91
2022-12-03T07:19:33.309Z,102123.28
2022-12-03T07:22:00.139Z,102124.06
2022-12-03T07:24:26.643Z,102121.66
2022-12-03T07:26:53.189Z,102127.28
2022-12-03T07:29:19.885Z,102125.66
2022-12-03T07:31:46.528Z,102129.72
2022-12-03T07:34:13.241Z,102132.94
2022-12-03T07:36:39.822Z,102132.94
2022-12-03T07:39:06.460Z,102134.94
2022-12-03T07:41:33.018Z,102124.84
2022-12-03T07:43:59.559Z,102136.13
2022-12-03T07:46:26.356Z,102116.78
2022-12-03T07:48:53.099Z,102140.16
2022-12-03T07:51:19.865Z,102131.69
2022-12-03T07:53:46.450Z,102121.63
2022-12-03T07:56:13.012Z,102125.66
2022-12-03T07:58:39.842Z,102121.63
2022-12-03T08:01:06.569Z,102125.66
2022-12-03T08:03:33.157Z,102122.84
2022-12-03T08:05:59.712Z,102130.50
2022-12-03T08:08:26.326Z,102118.81
2022-12-03T08:10:52.946Z,102118.00
2022-12-03T08:13:19.994Z,102119.22
2022-12-03T08:15:46.836Z,102124.47
2022-12-03T08:18:21.314Z,102120.81
2022-12-03T08:20:51.752Z,102121.19
2022-12-03T08:23:21.280Z,102121.63
2022-12-03T08:25:49.641Z,102116.78
2022-12-03T08:28:22.004Z,102108.72
2022-12-03T08:31:21.068Z,102110.34
2022-12-03T08:33:49.553Z,102104.72
2022-12-03T08:36:25.261Z,102109.13
2022-12-03T08:38:57.112Z,102098.69
2022-12-03T08:41:43.296Z,102096.66
2022-12-03T08:44:32.474Z,102111.94
2022-12-03T08:47:24.972Z,102125.25
2022-12-03T08:49:57.954Z,102115.59
2022-12-03T08:52:31.452Z,102113.13
2022-12-03T08:54:58.153Z,102123.22
2022-12-03T08:57:32.533Z,102117.59
2022-12-03T09:00:23.065Z,102119.22
2022-12-03T09:02:52.461Z,102114.81
2022-12-03T09:05:22.480Z,102106.75
2022-12-03T09:07:49.206Z,102120.06
2022-12-03T09:10:15.914Z,102109.97
2022-12-03T09:12:42.388Z,102111.16
2022-12-03T09:15:09.267Z,102098.28
2022-12-03T09:17:35.779Z,102106.34
2022-12-03T09:20:02.430Z,102104.72
2022-12-03T09:22:29.163Z,102102.31
2022-12-03T09:24:55.926Z,102099.09
2022-12-03T09:27:22.878Z,102098.69
2022-12-03T09:29:50.439Z,102085.38
2022-12-03T09:32:18.730Z,102088.63
2022-12-03T09:34:47.124Z,102094.69
2022-12-03T09:37:13.694Z,102083.00
2022-12-03T09:39:40.257Z,102091.06
2022-12-03T09:42:07.040Z,102080.56
2022-12-03T09:44:34.787Z,102089.44
2022-12-03T09:47:02.758Z,102086.63
2022-12-03T09:49:31.935Z,102084.63
2022-12-03T09:52:01.853Z,102070.91
2022-12-03T09:54:29.806Z,102077.75
2022-12-03T09:56:59.129Z,102066.88
2022-12-03T09:59:27.824Z,102070.91
2022-12-03T10:01:54.611Z,102070.13
2022-12-03T10:04:21.416Z,102072.53
2022-12-03T10:06:48.119Z,102062.06
2022-12-03T10:09:20.839Z,102073.75
2022-12-03T10:11:48.152Z,102067.31
2022-12-03T10:14:17.068Z,102064.88
2022-12-03T10:16:43.915Z,102066.91
2022-12-03T10:19:19.545Z,102068.50
2022-12-03T10:21:46.168Z,102068.50
2022-12-03T10:24:21.578Z,102074.16
2022-12-03T10:26:50.254Z,102061.66
2022-12-03T10:29:22.685Z,102070.91
2022-12-03T10:32:10.534Z,102065.69
2022-12-03T10:34:40.117Z,102059.63
2022-12-03T10:37:21.491Z,102057.25
2022-12-03T10:40:08.434Z,102058.03
2022-12-03T10:42:39.026Z,102060.47
2022-12-03T10:45:15.227Z,102051.56
2022-12-03T10:47:43.265Z,102050.78
2022-12-03T10:50:19.488Z,102053.19
2022-12-03T10:52:47.018Z,102039.50
2022-12-03T10:55:14.984Z,102041.13
2022-12-03T10:57:45.508Z,102025.81
2022-12-03T11:00:20.321Z,102035.88
2022-12-03T11:02:56.135Z,102040.31
2022-12-03T11:05:29.463Z,102036.28
2022-12-03T11:07:56.803Z,102036.28
2022-12-03T11:10:24.034Z,102040.31
2022-12-03T11:13:29.184Z,102029.84
2022-12-03T11:15:56.322Z,102024.97
2022-12-03T11:18:35.749Z,102017.75
2022-12-03T11:21:13.972Z,102016.53
2022-12-03T11:23:46.399Z,102018.16
2022-12-03T11:26:19.212Z,102015.31
2022-12-03T11:28:46.273Z,102008.47
2022-12-03T11:31:37.811Z,102012.91
2022-12-03T11:34:22.612Z,101999.59
2022-12-03T11:37:11.122Z,102000.81
2022-12-03T11:39:49.884Z,102003.66
2022-12-03T11:42:28.811Z,101997.19
2022-12-03T11:45:04.290Z,101997.19
2022-12-03T11:48:01.521Z,101991.13
2022-12-03T11:50:39.844Z,101983.09
2022-12-03T11:53:22.788Z,101973.00
2022-12-03T11:56:06.537Z,101976.22
2022-12-03T11:58:34.867Z,101975.03
2022-12-03T12:01:04.838Z,101971.00
2022-12-03T12:03:50.644Z,101963.75
2022-12-03T12:06:20.443Z,101961.31
2022-12-03T12:08:50.686Z,101961.31
2022-12-03T12:11:34.453Z,101948.41
2022-12-03T12:14:12.061Z,101947.19
2022-12-03T12:16:50.982Z,101939.16
2022-12-03T12:19:35.080Z,101934.31
2022-12-03T12:22:24.115Z,101933.09
2022-12-03T12:24:59.096Z,101939.16
2022-12-03T12:27:35.716Z,101933.09
2022-12-03T12:30:07.282Z,101938.34
2022-12-03T12:33:06.299Z,101930.69
2022-12-03T12:35:33.026Z,101935.50
2022-12-03T12:38:12.830Z,101929.06
2022-12-03T12:40:42.456Z,101930.69
2022-12-03T12:43:20.447Z,101935.50
2022-12-03T12:45:51.997Z,101939.56
2022-12-03T12:48:28.183Z,101930.28
2022-12-03T12:51:00.948Z,101922.22
2022-12-03T12:53:31.359Z,101923.41
2022-12-03T12:56:07.064Z,101923.41
2022-12-03T12:58:34.364Z,101923.41
2022-12-03T13:01:07.679Z,101916.19
2022-12-03T13:03:39.373Z,101913.38
2022-12-03T13:06:06.393Z,101921.00
2022-12-03T13:08:39.336Z,101919.81
2022-12-03T13:11:17.446Z,101926.66
2022-12-03T13:13:44.602Z,101919.00
2022-12-03T13:16:19.251Z,101923.41
2022-12-03T13:18:53.850Z,101924.22
2022-12-03T13:21:22.150Z,101916.97
2022-12-03T13:23:54.633Z,101915.75
2022-12-03T13:26:39.456Z,101916.19
2022-12-03T13:29:18.227Z,101908.13
2022-12-03T13:31:55.849Z,101912.94
2022-12-03T13:34:33.526Z,101916.19
2022-12-03T13:37:01.845Z,101905.69
2022-12-03T13:39:35.051Z,101912.53
2022-12-03T13:42:38.590Z,101915.34
2022-12-03T13:45:17.346Z,101902.47
2022-12-03T13:47:46.353Z,101909.72
2022-12-03T13:50:34.382Z,101904.88
2022-12-03T13:53:03.551Z,101901.66
2022-12-03T13:55:31.745Z,101902.47
2022-12-03T13:57:58.477Z,101896.84
2022-12-03T14:00:25.106Z,101900.84
2022-12-03T14:02:51.750Z,101900.84
2022-12-03T14:05:21.081Z,101906.50
2022-12-03T14:07:47.639Z,101903.28
2022-12-03T14:10:14.350Z,101906.50
2022-12-03T14:12:40.892Z,101904.88
2022-12-03T14:15:10.453Z,101895.63
2022-12-03T14:17:37.100Z,101907.28
2022-12-03T14:20:04.714Z,101899.22
2022-12-03T14:22:31.401Z,101903.69
2022-12-03T14:24:58.048Z,101912.16
2022-12-03T14:27:24.821Z,101900.06
2022-12-03T14:29:52.032Z,101897.66
2022-12-03T14:32:19.120Z,101896.41
2022-12-03T14:34:45.785Z,101890.38
2022-12-03T14:37:12.667Z,101892.00
2022-12-03T14:39:39.576Z,101879.88
2022-12-03T14:42:15.371Z,101889.19
2022-12-03T14:44:47.667Z,101884.75
2022-12-03T14:47:16.428Z,101885.53
2022-12-03T14:49:43.026Z,101878.31
2022-12-03T14:52:12.240Z,101877.47
2022-12-03T14:54:41.980Z,101875.88
2022-12-03T14:57:09.443Z,101871.03
2022-12-03T14:59:35.984Z,101863.38
2022-12-03T15:02:02.993Z,101865.00
2022-12-03T15:04:29.667Z,101869.00
2022-12-03T15:06:56.311Z,101868.63
2022-12-03T15:09:22.872Z,101865.78
2022-12-03T15:11:49.412Z,101865.41
2022-12-03T15:14:15.914Z,101877.47
2022-12-03T15:16:42.502Z,101869.41
2022-12-03T15:19:09.377Z,101867.41
2022-12-03T15:21:35.960Z,101868.63
2022-12-03T15:24:04.021Z,101866.19
2022-12-03T15:26:30.597Z,101869.41
2022-12-03T15:28:57.176Z,101867.00
2022-12-03T15:31:23.878Z,101869.41
2022-12-03T15:33:50.521Z,101871.84
2022-12-03T15:36:17.252Z,101872.25
2022-12-03T15:38:43.923Z,101873.47
2022-12-03T15:41:30.588Z,101872.25
2022-12-03T15:43:59.902Z,101877.47
2022-12-03T15:46:27.837Z,101876.69
2022-12-03T15:48:55.578Z,101862.19
2022-12-03T15:51:22.335Z,101873.47
2022-12-03T15:53:49.210Z,101875.06
2022-12-03T15:56:16.058Z,101870.25
2022-12-03T15:58:43.193Z,101870.25
2022-12-03T16:01:09.931Z,101867.84
2022-12-03T16:03:36.974Z,101873.47
2022-12-03T16:06:03.622Z,101877.50
2022-12-03T16:08:48.289Z,101867.84
2022-12-03T16:11:14.938Z,101864.59
2022-12-03T16:13:41.528Z,101868.63
2022-12-03T16:16:08.140Z,101869.03
2022-12-03T16:18:34.874Z,101869.81
2022-12-03T16:21:01.349Z,101867.03
2022-12-03T16:23:27.896Z,101873.06
2022-12-03T16:25:54.442Z,101870.22
2022-12-03T16:28:21.080Z,101868.63
2022-12-03T16:30:47.709Z,101870.22
2022-12-03T16:33:14.357Z,101871.06
2022-12-03T16:35:40.913Z,101877.09
2022-12-03T16:38:07.477Z,101860.16
2022-12-03T16:40:34.027Z,101868.63
2022-12-03T16:43:03.278Z,101868.63
2022-12-03T16:45:29.809Z,101867.81
2022-12-03T16:47:56.346Z,101863.00
2022-12-03T16:50:29.362Z,101867.03
2022-12-03T16:52:57.572Z,101867.03
2022-12-03T16:55:24.308Z,101863.41
2022-12-03T16:57:51.048Z,101862.97
2022-12-03T17:00:17.888Z,101865.41
2022-12-03T17:02:44.516Z,101868.22
2022-12-03T17:05:11.203Z,101868.22
2022-12-03T17:07:38.037Z,101874.69
2022-12-03T17:10:05.255Z,101851.72
2022-12-03T17:13:00.656Z,101872.66
2022-12-03T17:15:18.995Z,101854.91
2022-12-03T17:17:45.574Z,101860.97
2022-12-03T17:20:14.526Z,101862.97
2022-12-03T17:22:41.742Z,101853.31
2022-12-03T17:25:08.899Z,101862.97
2022-12-03T17:27:38.682Z,101855.75
2022-12-03T17:30:11.036Z,101858.97
2022-12-03T17:32:37.671Z,101858.16
2022-12-03T17:35:04.733Z,101867.44
2022-12-03T17:37:31.307Z,101865.41
2022-12-03T17:39:57.820Z,101870.25
2022-12-03T17:42:24.482Z,101858.56
2022-12-03T17:44:50.976Z,101864.63
2022-12-03T17:47:17.589Z,101869.84
2022-12-03T17:49:44.157Z,101868.25
2022-12-03T17:52:10.865Z,101854.94
2022-12-03T17:55:01.917Z,101857.34
2022-12-03T17:57:24.444Z,101856.56
2022-12-03T17:59:51.124Z,101862.19
2022-12-03T18:02:17.895Z,101867.84
2022-12-03T18:04:44.490Z,101861.38
2022-12-03T18:15:09.325Z,101858.97
2022-12-03T18:17:36.975Z,101859.78
2022-12-03T18:20:04.270Z,101854.13
2022-12-03T18:22:31.169Z,101850.91
2022-12-03T18:24:57.889Z,101861.00
2022-12-03T18:27:24.869Z,101853.34
2022-12-03T18:29:51.732Z,101854.53
2022-12-03T18:32:28.837Z,101857.34
2022-12-03T18:34:56.473Z,101852.94
2022-12-03T18:37:26.508Z,101851.72
2022-12-03T18:39:53.487Z,101855.75
2022-12-03T18:42:22.799Z,101851.72
2022-12-03T18:44:51.318Z,101863.81
2022-12-03T18:47:19.946Z,101851.34
2022-12-03T18:49:47.019Z,101861.38
2022-12-03T18:52:15.682Z,101854.94
2022-12-03T18:54:42.797Z,101854.94
2022-12-03T18:57:09.703Z,101857.38
2022-12-03T18:59:37.021Z,101859.75
2022-12-03T19:02:03.868Z,101867.03
2022-12-03T19:04:30.859Z,101861.38
2022-12-03T19:06:57.312Z,101875.09
2022-12-03T19:09:23.790Z,101862.19
2022-12-03T19:11:50.258Z,101857.34
2022-12-03T19:14:16.742Z,101867.84
2022-12-03T19:16:44.451Z,101852.16
2022-12-03T19:19:11.131Z,101856.97
2022-12-03T19:21:37.767Z,101857.34
2022-12-03T19:24:23.766Z,101855.75
2022-12-03T19:26:54.582Z,101865.03
2022-12-03T19:29:24.593Z,101860.97
2022-12-03T19:31:51.773Z,101864.59
2022-12-03T19:34:18.709Z,101862.22
2022-12-03T19:36:45.650Z,101869.03
2022-12-03T19:39:12.124Z,101865.81
2022-12-03T19:41:39.310Z,101868.66
2022-12-03T19:44:10.765Z,101872.66
2022-12-03T19:46:37.517Z,101869.44
2022-12-03T19:49:04.820Z,101873.88
2022-12-03T19:51:35.786Z,101873.47
2022-12-03T19:54:07.035Z,101867.03
2022-12-03T19:56:34.390Z,101869.44
2022-12-03T19:59:00.980Z,101873.47
2022-12-03T20:01:30.631Z,101880.72
2022-12-03T20:03:58.765Z,101879.09
2022-12-03T20:06:28.785Z,101878.31
2022-12-03T20:08:57.956Z,101873.47
2022-12-03T20:11:28.195Z,101871.88
2022-12-03T20:13:57.120Z,101866.22
2022-12-03T20:16:24.925Z,101873.06
2022-12-03T20:18:55.337Z,101880.72
2022-12-03T20:21:21.799Z,101877.47
2022-12-03T20:23:48.295Z,101881.53
2022-12-03T20:26:17.343Z,101885.97
2022-12-03T20:28:44.592Z,101874.66
2022-12-03T20:31:14.186Z,101868.63
2022-12-03T20:33:43.712Z,101874.25
2022-12-03T20:36:11.927Z,101874.25
2022-12-03T20:38:38.763Z,101878.31
2022-12-03T20:41:07.262Z,101872.66
2022-12-03T20:43:34.235Z,101867.03
2022-12-03T20:46:17.138Z,101865.41
2022-12-03T20:48:44.905Z,101859.78
2022-12-03T20:51:17.095Z,101862.19
2022-12-03T20:53:44.529Z,101858.97
2022-12-03T20:56:15.771Z,101845.69
2022-12-03T20:58:42.248Z,101842.06
2022-12-03T21:01:15.414Z,101837.22
2022-12-03T21:03:43.035Z,101835.59
2022-12-03T21:06:10.253Z,101834.41
2022-12-03T21:08:41.640Z,101831.59
2022-12-03T21:11:18.095Z,101835.22
2022-12-03T21:13:45.902Z,101832.78
2022-12-03T21:16:15.694Z,101841.25
2022-12-03T21:18:42.690Z,101829.97
2022-12-03T21:21:14.314Z,101834.00
2022-12-03T21:23:41.252Z,101834.00
2022-12-03T21:26:13.732Z,101835.22
2022-12-03T21:28:41.604Z,101846.88
2022-12-03T21:31:10.960Z,101854.13
2022-12-03T21:33:38.179Z,101846.88
2022-12-03T21:36:05.282Z,101841.25
2022-12-03T21:38:32.329Z,101834.00
2022-12-03T21:40:59.420Z,101844.47
2022-12-03T21:43:26.537Z,101846.09
2022-12-03T21:45:53.305Z,101848.50
2022-12-03T21:48:20.306Z,101846.88
2022-12-03T21:50:56.847Z,101853.34
2022-12-03T21:53:23.273Z,101847.69
2022-12-03T21:55:49.703Z,101852.50
2022-12-03T21:58:16.147Z,101844.06
2022-12-03T22:00:42.608Z,101848.50
2022-12-03T22:03:09.084Z,101842.84
2022-12-03T22:05:38.106Z,101845.28
2022-12-03T22:08:05.195Z,101847.69
2022-12-03T22:10:32.009Z,101847.69
2022-12-03T22:12:58.424Z,101847.69
2022-12-03T22:15:24.931Z,101844.88
2022-12-03T22:17:51.388Z,101841.25
2022-12-03T22:20:18.017Z,101840.03
2022-12-03T22:22:44.629Z,101838.41
2022-12-03T22:25:11.070Z,101841.25
2022-12-03T22:27:37.534Z,101848.50
2022-12-03T22:30:05.369Z,101842.84
2022-12-03T22:32:31.838Z,101844.47
2022-12-03T22:34:59.702Z,101840.03
2022-12-03T22:37:26.112Z,101843.66
2022-12-03T22:39:52.845Z,101842.06
2022-12-03T22:42:19.637Z,101847.31
2022-12-03T22:44:46.033Z,101850.13
2022-12-03T22:47:12.497Z,101852.94
2022-12-03T22:49:38.914Z,101838.84
2022-12-03T22:52:07.181Z,101838.03
2022-12-03T22:54:33.709Z,101835.59
2022-12-03T22:57:00.160Z,101839.66
2022-12-03T22:59:26.724Z,101839.66
2022-12-03T23:01:53.128Z,101839.66
2022-12-03T23:04:19.676Z,101840.44
2022-12-03T23:06:48.750Z,101837.63
2022-12-03T23:09:15.183Z,101841.66
2022-12-03T23:11:43.425Z,101831.59
2022-12-03T23:14:09.860Z,101834.00
2022-12-03T23:16:36.364Z,101835.63
2022-12-03T23:19:03.968Z,101828.78
2022-12-03T23:21:33.416Z,101838.84
2022-12-03T23:24:02.638Z,101828.78
2022-12-03T23:26:29.628Z,101832.38
2022-12-03T23:28:56.409Z,101832.78
2022-12-03T23:31:29.412Z,101831.59
2022-12-03T23:33:57.426Z,101838.84
2022-12-03T23:36:26.355Z,101829.56
2022-12-03T23:38:53.644Z,101833.22
2022-12-03T23:41:21.725Z,101827.97
2022-12-03T23:43:48.286Z,101821.94
2022-12-03T23:46:18.297Z,101831.97
2022-12-03T23:48:45.533Z,101831.97
2022-12-03T23:51:17.874Z,101832.38
2022-12-03T23:53:44.835Z,101827.56
2022-12-03T23:56:18.283Z,101817.50
2022-12-03T23:58:45.927Z,101829.56
